Time;durP1;ratioP1;P1;durP2;ratioP2;P2;SDS_P1;SDS_P2;PMS_P1;PMS_P2;Temp;Humidity;BMP_temperature;BMP_pressure;BME280_temperature;BME280_humidity;BME280_pressure;Samples;Min_cycle;Max_cycle;Signal;HPM_P1;HPM_P2
2023/06/19 00:00:12;;;;;;;7.03;6.13;;;;;;;25.69;57.44;100726.66;4944132;28;20047;-82
2023/06/19 00:02:43;;;;;;;11.85;6.78;;;;;;;25.59;57.71;100728.16;4944310;28;20057;-83
2023/06/19 00:05:12;;;;;;;14.50;6.57;;;;;;;25.70;57.73;100731.91;4943743;28;20054;-82
2023/06/19 00:07:42;;;;;;;11.77;6.72;;;;;;;25.55;58.47;100721.72;4944470;28;20046;-82
2023/06/19 00:10:21;;;;;;;9.95;6.55;;;;;;;25.30;60.17;100730.53;4959738;28;20046;-82
2023/06/19 00:13:02;;;;;;;8.27;6.57;;;;;;;25.20;60.87;100738.41;4961925;28;20081;-83
2023/06/19 00:15:31;;;;;;;9.05;6.35;;;;;;;25.33;60.46;100738.19;4959500;28;20054;-82
2023/06/19 00:17:59;;;;;;;8.55;5.90;;;;;;;25.39;60.85;100742.25;4959876;28;20065;-82
2023/06/19 00:20:29;;;;;;;8.15;6.43;;;;;;;25.42;60.92;100735.91;4976003;28;20054;-82
2023/06/19 00:22:57;;;;;;;9.10;6.57;;;;;;;25.06;63.07;100733.41;4959702;28;20058;-82
2023/06/19 00:25:25;;;;;;;10.65;7.75;;;;;;;24.93;64.11;100738.38;4959775;28;20050;-82
2023/06/19 00:27:53;;;;;;;10.18;6.57;;;;;;;24.99;63.94;100743.66;4959878;28;20054;-82
2023/06/19 00:30:21;;;;;;;7.20;6.45;;;;;;;24.60;65.38;100739.81;4959767;28;20047;-82
2023/06/19 00:32:52;;;;;;;9.57;7.70;;;;;;;24.47;65.74;100741.16;4960031;28;20054;-82
2023/06/19 00:35:22;;;;;;;11.07;7.53;;;;;;;24.31;67.06;100744.88;4959748;28;20061;-82
2023/06/19 00:37:50;;;;;;;11.60;7.57;;;;;;;24.32;66.61;100738.13;4959657;28;20519;-82
2023/06/19 00:40:38;;;;;;;8.93;7.35;;;;;;;24.24;67.52;100739.16;4959698;28;20169;-82
2023/06/19 00:43:20;;;;;;;9.70;8.15;;;;;;;24.19;68.04;100742.25;4961018;28;20050;-82
2023/06/19 00:45:48;;;;;;;9.55;8.23;;;;;;;24.24;67.24;100741.97;4975233;28;20057;-82
2023/06/19 00:48:17;;;;;;;9.25;6.97;;;;;;;24.33;67.27;100750.91;4972010;28;20054;-82
2023/06/19 00:50:46;;;;;;;9.80;7.57;;;;;;;24.37;66.25;100757.38;4947920;28;20485;-82
2023/06/19 00:53:15;;;;;;;9.57;7.45;;;;;;;24.33;65.63;100758.50;4955642;28;20047;-82
2023/06/19 00:55:45;;;;;;;8.80;7.13;;;;;;;24.22;66.55;100772.25;4946979;28;20054;-82
2023/06/19 00:58:13;;;;;;;10.70;7.20;;;;;;;24.13;66.54;100762.13;4962967;28;20050;-82
2023/06/19 01:00:41;;;;;;;10.05;7.22;;;;;;;24.27;66.14;100770.00;4959252;28;20058;-82
2023/06/19 01:03:26;;;;;;;9.18;6.85;;;;;;;24.31;65.88;100770.06;4960240;28;20051;-82
2023/06/19 01:05:56;;;;;;;12.30;8.43;;;;;;;24.03;66.57;100765.47;4975990;28;20066;-82
2023/06/19 01:08:41;;;;;;;18.90;9.18;;;;;;;23.86;67.74;100775.13;4976414;28;20051;-82
2023/06/19 01:11:13;;;;;;;11.68;7.82;;;;;;;23.72;69.01;100776.44;4958032;28;20050;-82
2023/06/19 01:14:00;;;;;;;11.73;8.43;;;;;;;23.72;69.15;100772.84;4948788;28;20489;-82
2023/06/19 01:16:30;;;;;;;11.95;8.45;;;;;;;23.75;69.03;100775.69;4947100;28;20057;-82
2023/06/19 01:18:59;;;;;;;9.52;8.38;;;;;;;23.94;68.41;100773.28;4943367;28;20050;-82
2023/06/19 01:21:27;;;;;;;10.75;8.70;;;;;;;23.93;68.63;100788.41;4938631;28;20043;-82
2023/06/19 01:23:55;;;;;;;10.18;8.23;;;;;;;24.00;68.09;100777.41;4945316;28;20528;-82
2023/06/19 01:26:26;;;;;;;10.60;8.32;;;;;;;24.06;67.87;100780.72;4962471;28;20043;-82
2023/06/19 01:28:55;;;;;;;13.32;8.98;;;;;;;23.88;68.40;100784.75;4946063;28;20046;-82
2023/06/19 01:31:42;;;;;;;11.05;8.70;;;;;;;23.77;68.83;100792.09;4946803;28;20057;-82
2023/06/19 01:34:15;;;;;;;11.80;9.23;;;;;;;23.72;69.29;100800.78;4946453;28;20050;-82
2023/06/19 01:36:45;;;;;;;15.10;9.50;;;;;;;23.64;69.59;100797.00;4962483;28;20059;-82
2023/06/19 01:39:17;;;;;;;14.63;9.40;;;;;;;23.50;69.73;100794.69;4945887;28;20054;-82
2023/06/19 01:41:47;;;;;;;12.50;8.95;;;;;;;23.57;69.54;100794.88;4939108;28;20047;-81
2023/06/19 01:44:16;;;;;;;16.88;9.80;;;;;;;23.53;70.09;100793.16;4943301;28;20054;-82
2023/06/19 01:46:50;;;;;;;12.43;9.50;;;;;;;23.45;70.17;100786.59;4946779;28;20058;-82
2023/06/19 01:49:19;;;;;;;12.57;9.57;;;;;;;23.71;69.32;100804.75;4946250;28;20079;-82
2023/06/19 01:51:47;;;;;;;13.35;9.40;;;;;;;23.62;69.78;100799.34;4962161;28;20046;-81
2023/06/19 01:54:15;;;;;;;13.68;9.95;;;;;;;23.59;70.37;100792.50;4946645;28;20404;-82
2023/06/19 01:56:43;;;;;;;11.93;9.20;;;;;;;23.41;71.07;100796.88;4962277;28;20053;-81
2023/06/19 01:59:11;;;;;;;13.18;9.63;;;;;;;23.73;69.61;100794.00;4942707;28;20401;-81
2023/06/19 02:01:40;;;;;;;12.85;9.68;;;;;;;23.81;68.97;100794.97;4943215;28;20050;-82
2023/06/19 02:04:08;;;;;;;13.38;9.45;;;;;;;23.87;68.95;100797.13;4942621;28;20051;-82
2023/06/19 02:06:37;;;;;;;11.50;9.13;;;;;;;23.84;68.51;100797.03;4927355;28;20061;-82
2023/06/19 02:09:07;;;;;;;12.75;9.70;;;;;;;23.75;69.34;100816.78;4942375;28;20062;-82
2023/06/19 02:11:38;;;;;;;11.02;9.40;;;;;;;23.72;69.40;100812.75;4926984;28;20058;-81
2023/06/19 02:14:11;;;;;;;12.65;9.23;;;;;;;23.92;68.91;100811.97;4958431;28;20062;-81
2023/06/19 02:16:40;;;;;;;12.68;9.23;;;;;;;23.78;68.62;100821.66;4927160;28;20042;-81
2023/06/19 02:19:11;;;;;;;13.52;9.15;;;;;;;23.37;70.75;100812.75;4942613;28;20050;-81
2023/06/19 02:21:40;;;;;;;11.27;8.52;;;;;;;23.39;70.72;100815.97;4942942;28;20058;-81
2023/06/19 02:24:08;;;;;;;14.23;8.65;;;;;;;23.61;70.13;100809.72;4926871;28;20065;-81
2023/06/19 02:26:36;;;;;;;10.90;9.13;;;;;;;23.58;69.40;100818.84;4942615;28;20058;-81
2023/06/19 02:29:04;;;;;;;11.82;9.23;;;;;;;23.51;69.94;100810.25;4942341;28;20046;-81
2023/06/19 02:31:32;;;;;;;10.60;8.43;;;;;;;23.57;69.86;100816.41;4941970;28;20051;-81
2023/06/19 02:34:01;;;;;;;11.10;8.43;;;;;;;23.40;69.73;100812.81;4944643;28;20409;-81
2023/06/19 02:36:30;;;;;;;11.07;8.95;;;;;;;23.19;70.34;100813.91;4945697;28;20076;-81
2023/06/19 02:38:58;;;;;;;10.88;9.25;;;;;;;22.99;71.39;100807.44;4941925;28;20050;-82
2023/06/19 02:41:27;;;;;;;11.55;8.40;;;;;;;23.36;70.09;100820.28;4926471;28;20065;-81
2023/06/19 02:43:55;;;;;;;12.57;8.20;;;;;;;23.51;69.66;100810.25;4926747;28;20506;-81
2023/06/19 02:46:24;;;;;;;12.82;9.30;;;;;;;23.27;70.67;100809.28;4926679;28;20489;-81
2023/06/19 02:48:53;;;;;;;13.82;9.15;;;;;;;23.03;71.16;100816.69;4940715;28;20054;-81
2023/06/19 02:51:23;;;;;;;11.38;9.15;;;;;;;23.03;70.97;100808.31;4942211;28;20050;-82
2023/06/19 02:53:53;;;;;;;11.63;8.70;;;;;;;23.33;70.85;100819.06;4961096;28;20050;-81
2023/06/19 02:56:22;;;;;;;12.55;9.32;;;;;;;23.26;70.85;100816.03;4945696;28;20046;-82
2023/06/19 02:58:50;;;;;;;10.48;8.75;;;;;;;23.19;70.79;100813.09;4945201;28;20405;-81
2023/06/19 03:01:19;;;;;;;10.48;8.52;;;;;;;23.22;70.02;100824.34;4945194;28;20054;-81
2023/06/19 03:03:48;;;;;;;10.50;7.85;;;;;;;23.14;70.33;100827.31;4945281;28;20057;-81
2023/06/19 03:06:17;;;;;;;10.98;8.48;;;;;;;23.13;70.66;100822.91;4960758;28;20072;-81
2023/06/19 03:08:46;;;;;;;10.50;8.55;;;;;;;23.07;71.60;100828.75;4945212;28;20485;-81
2023/06/19 03:11:14;;;;;;;9.98;8.27;;;;;;;23.17;71.12;100826.59;4944794;28;20073;-82
2023/06/19 03:13:53;;;;;;;10.68;8.38;;;;;;;23.17;70.69;100826.59;4960997;28;20520;-81
2023/06/19 03:16:22;;;;;;;9.23;8.32;;;;;;;23.35;70.42;100835.44;4945224;28;20050;-81
2023/06/19 03:18:52;;;;;;;10.85;8.55;;;;;;;23.26;70.06;100818.84;4960523;28;20054;-81
2023/06/19 03:21:23;;;;;;;9.75;8.75;;;;;;;23.04;71.24;100823.91;4930066;28;20054;-82
2023/06/19 03:23:52;;;;;;;12.45;9.35;;;;;;;23.16;71.51;100833.38;4945024;28;20050;-82
2023/06/19 03:26:27;;;;;;;11.10;9.05;;;;;;;23.24;70.37;100835.16;4945501;28;20425;-81
2023/06/19 03:29:00;;;;;;;9.63;8.65;;;;;;;22.99;71.60;100813.00;4960426;28;20062;-82
2023/06/19 03:31:39;;;;;;;11.13;9.00;;;;;;;23.13;71.42;100828.47;4946017;28;20389;-82
2023/06/19 03:34:08;;;;;;;9.35;8.32;;;;;;;23.32;70.76;100822.22;4960185;28;20512;-81
2023/06/19 03:36:38;;;;;;;11.10;9.20;;;;;;;23.37;70.72;100826.69;4960391;28;20069;-82
2023/06/19 03:39:09;;;;;;;14.25;9.45;;;;;;;23.25;70.68;100828.38;4944677;28;20050;-82
2023/06/19 03:41:38;;;;;;;11.43;8.20;;;;;;;23.40;70.21;100828.78;4944186;28;20065;-82
2023/06/19 03:44:09;;;;;;;11.27;8.95;;;;;;;23.41;70.54;100833.97;4944963;28;20053;-81
2023/06/19 03:46:38;;;;;;;9.18;7.97;;;;;;;23.37;70.61;100829.50;4944689;28;20523;-82
2023/06/19 03:49:09;;;;;;;11.00;8.68;;;;;;;23.35;70.22;100841.84;4940929;28;20059;-82
2023/06/19 03:51:38;;;;;;;9.85;8.77;;;;;;;23.14;71.07;100832.88;4940803;28;20082;-82
2023/06/19 03:54:07;;;;;;;11.23;8.93;;;;;;;23.22;71.01;100831.91;4940904;28;20054;-82
2023/06/19 03:56:35;;;;;;;14.35;9.82;;;;;;;23.08;72.16;100835.94;4940894;28;20513;-82
2023/06/19 03:59:04;;;;;;;9.73;8.73;;;;;;;23.03;72.17;100839.00;4940759;28;20432;-82
2023/06/19 04:01:34;;;;;;;11.13;8.57;;;;;;;22.91;72.71;100836.28;4944303;28;20077;-82
2023/06/19 04:04:02;;;;;;;11.13;8.63;;;;;;;22.95;72.84;100834.41;4944438;28;20061;-82
2023/06/19 04:06:31;;;;;;;11.82;8.43;;;;;;;23.16;71.87;100830.56;4944458;28;20050;-82
2023/06/19 04:09:00;;;;;;;10.75;8.98;;;;;;;23.00;72.94;100836.94;4959933;28;20050;-82
2023/06/19 04:11:28;;;;;;;11.02;7.90;;;;;;;22.95;73.03;100835.25;4928339;28;20401;-82
2023/06/19 04:13:57;;;;;;;10.73;8.20;;;;;;;22.81;73.89;100835.69;4943759;28;20061;-81
2023/06/19 04:16:26;;;;;;;11.02;8.85;;;;;;;22.96;73.46;100833.25;4944321;28;20042;-82
2023/06/19 04:18:54;;;;;;;13.93;9.25;;;;;;;23.27;72.48;100831.63;4959712;28;20058;-82
2023/06/19 04:21:23;;;;;;;10.18;8.35;;;;;;;23.44;71.97;100835.25;4943870;28;20054;-82
2023/06/19 04:23:52;;;;;;;11.52;8.77;;;;;;;23.42;71.79;100826.44;4943607;28;20050;-82
2023/06/19 04:26:21;;;;;;;11.43;8.30;;;;;;;23.38;71.57;100829.13;4942152;28;20053;-82
2023/06/19 04:28:50;;;;;;;11.63;8.50;;;;;;;23.59;70.67;100831.63;4957540;28;20050;-82
2023/06/19 04:31:31;;;;;;;10.10;8.45;;;;;;;23.68;70.18;100833.41;4943095;28;20057;-83
2023/06/19 04:34:27;;;;;;;18.13;8.23;;;;;;;23.84;70.16;100842.56;4975153;28;20058;-82
2023/06/19 04:37:08;;;;;;;12.52;8.93;;;;;;;23.87;69.86;100838.22;4975023;28;20050;-82
2023/06/19 04:39:37;;;;;;;10.68;8.73;;;;;;;23.87;70.02;100825.06;4940178;28;20062;-82
2023/06/19 04:42:07;;;;;;;11.38;8.25;;;;;;;23.82;70.16;100836.53;4956200;28;20051;-83
2023/06/19 04:44:43;;;;;;;10.45;8.63;;;;;;;23.82;70.65;100832.91;4934690;28;20053;-83
2023/06/19 04:47:14;;;;;;;10.32;8.43;;;;;;;23.73;70.45;100825.56;4959539;28;20046;-83
2023/06/19 04:49:42;;;;;;;11.45;8.80;;;;;;;23.70;70.90;100833.84;4941163;28;20046;-82
2023/06/19 04:52:11;;;;;;;12.38;8.93;;;;;;;23.83;70.89;100829.75;4959173;28;20065;-82
2023/06/19 04:54:39;;;;;;;10.38;8.52;;;;;;;23.99;70.84;100823.28;4943305;28;20050;-82
2023/06/19 04:57:08;;;;;;;9.70;8.13;;;;;;;24.08;69.83;100831.47;4955494;28;20520;-84
2023/06/19 04:59:36;;;;;;;9.75;8.55;;;;;;;24.06;70.03;100822.63;4933286;28;20050;-84
2023/06/19 05:02:07;;;;;;;11.95;9.52;;;;;;;24.20;69.63;100831.38;4958920;28;20065;-84
2023/06/19 05:04:37;;;;;;;13.48;9.90;;;;;;;24.23;69.44;100830.63;4940188;28;20401;-86
2023/06/19 05:07:06;;;;;;;12.90;8.45;;;;;;;24.36;68.89;100825.69;4940251;28;20055;-87
2023/06/19 05:09:35;;;;;;;12.95;9.00;;;;;;;24.31;69.72;100837.16;4951414;28;20057;-88
2023/06/19 05:12:11;;;;;;;13.23;9.55;;;;;;;24.29;69.78;100826.34;4930342;28;20492;-86
2023/06/19 05:14:39;;;;;;;14.88;9.55;;;;;;;24.27;70.28;100831.50;4943568;28;20808;-86
2023/06/19 05:17:09;;;;;;;15.32;9.90;;;;;;;24.35;68.75;100826.88;4943406;28;20054;-85
2023/06/19 05:19:37;;;;;;;13.63;9.48;;;;;;;24.45;68.27;100835.81;4942922;28;20063;-85
2023/06/19 05:22:06;;;;;;;12.77;9.45;;;;;;;24.68;67.58;100841.47;4943374;28;20505;-86
2023/06/19 05:24:34;;;;;;;13.77;9.93;;;;;;;24.79;66.67;100850.06;4943438;28;20489;-86
2023/06/19 05:27:03;;;;;;;16.65;12.60;;;;;;;24.60;66.68;100832.13;4943366;28;20504;-86
2023/06/19 05:29:32;;;;;;;19.75;10.70;;;;;;;24.84;65.57;100830.19;4942559;28;20055;-85
2023/06/19 05:32:00;;;;;;;17.52;14.02;;;;;;;24.91;63.66;100840.69;4957566;28;20130;-85
2023/06/19 05:34:29;;;;;;;18.30;14.10;;;;;;;24.82;62.95;100836.16;4942299;28;20058;-85
2023/06/19 05:37:00;;;;;;;20.42;14.10;;;;;;;24.94;63.61;100840.75;4939243;28;20046;-84
2023/06/19 05:39:31;;;;;;;16.77;13.13;;;;;;;25.02;62.91;100836.09;4952825;28;20047;-84
2023/06/19 05:42:23;;;;;;;18.40;14.40;;;;;;;25.10;62.67;100831.44;4942893;28;20091;-84
2023/06/19 05:45:07;;;;;;;19.38;14.82;;;;;;;25.08;63.56;100834.59;4949231;28;20042;-84
2023/06/19 05:47:36;;;;;;;20.17;13.88;;;;;;;25.24;62.98;100842.06;4946222;28;20054;-85
2023/06/19 05:50:05;;;;;;;15.18;11.95;;;;;;;25.42;61.89;100831.13;4946956;28;20054;-85
2023/06/19 05:52:34;;;;;;;18.33;13.38;;;;;;;25.34;62.30;100841.44;4947017;28;20050;-85
2023/06/19 05:55:07;;;;;;;22.75;14.48;;;;;;;25.21;63.75;100849.22;4977615;28;20050;-86
2023/06/19 05:57:58;;;;;;;24.77;15.98;;;;;;;25.28;63.69;100847.72;4946948;28;20046;-86
2023/06/19 06:01:32;;;;;;;20.25;15.25;;;;;;;25.27;63.06;100846.91;4932119;28;20054;-85
2023/06/19 06:04:59;;;;;;;20.30;14.40;;;;;;;25.37;62.83;100845.47;4975367;28;20409;-86
2023/06/19 06:13:09;;;;;;;22.10;13.40;;;;;;;25.41;61.98;100851.94;4965137;28;20059;-86
2023/06/19 06:17:26;;;;;;;16.77;12.18;;;;;;;25.46;61.40;100842.41;4974575;28;20063;-87
2023/06/19 06:20:35;;;;;;;16.98;11.77;;;;;;;25.55;61.07;100853.38;4957925;28;20038;-84
2023/06/19 06:25:00;;;;;;;20.65;12.52;;;;;;;25.62;61.08;100840.28;4952956;29;20051;-86
2023/06/19 06:28:58;;;;;;;20.10;12.13;;;;;;;25.89;60.92;100847.84;4943267;29;20058;-86
2023/06/19 06:32:38;;;;;;;18.40;11.82;;;;;;;25.85;59.86;100839.41;4935595;29;20066;-86
2023/06/19 06:36:17;;;;;;;15.52;11.65;;;;;;;26.01;59.54;100844.81;4924293;29;20058;-87
2023/06/19 06:40:18;;;;;;;18.75;12.82;;;;;;;26.15;58.81;100844.19;4924045;29;20550;-85
2023/06/19 06:44:01;;;;;;;17.95;12.48;;;;;;;26.13;59.16;100821.34;4924067;29;20063;-87
2023/06/19 06:48:24;;;;;;;18.40;11.88;;;;;;;26.45;59.76;100816.50;4913114;29;20048;-85
2023/06/19 06:52:10;;;;;;;16.98;12.45;;;;;;;26.70;58.12;100825.19;4914496;29;20511;-78
2023/06/19 06:54:38;;;;;;;19.40;10.82;;;;;;;26.89;57.56;100818.56;4915677;29;20059;-78
2023/06/19 06:57:06;;;;;;;18.33;12.45;;;;;;;26.80;57.91;100816.06;4953145;29;20066;-78
2023/06/19 06:59:34;;;;;;;17.77;12.52;;;;;;;26.79;58.17;100820.06;4952999;29;20055;-77
2023/06/19 07:02:02;;;;;;;15.35;11.73;;;;;;;26.78;58.06;100823.28;4952978;29;20051;-78
2023/06/19 07:04:31;;;;;;;21.83;12.75;;;;;;;26.70;58.27;100816.78;4952750;29;20492;-78
2023/06/19 07:06:59;;;;;;;20.58;12.30;;;;;;;26.69;58.03;100815.16;4952930;29;20051;-78
2023/06/19 07:09:27;;;;;;;17.58;12.00;;;;;;;26.55;58.37;100821.44;4952833;29;20043;-77
2023/06/19 07:11:56;;;;;;;17.17;11.32;;;;;;;26.73;58.50;100815.19;4952546;29;20055;-77
2023/06/19 07:14:24;;;;;;;16.90;11.50;;;;;;;26.70;58.94;100806.34;4952846;29;20095;-77
2023/06/19 07:16:52;;;;;;;16.80;10.80;;;;;;;26.66;56.83;100818.72;4961017;28;20050;-77
2023/06/19 07:19:20;;;;;;;18.98;11.07;;;;;;;26.76;58.41;100806.81;4993801;28;20062;-78
2023/06/19 07:21:50;;;;;;;15.70;10.48;;;;;;;26.91;57.55;100804.97;4993524;28;20507;-77
2023/06/19 07:24:19;;;;;;;16.98;11.75;;;;;;;27.04;56.88;100804.66;4993761;28;20058;-77
2023/06/19 07:26:47;;;;;;;19.85;11.40;;;;;;;27.01;57.63;100809.06;4993705;28;20038;-77
2023/06/19 07:29:15;;;;;;;19.00;11.27;;;;;;;27.19;57.07;100802.78;4993614;28;20049;-78
2023/06/19 07:31:43;;;;;;;16.48;12.10;;;;;;;27.19;57.04;100809.22;4993597;28;20065;-77
2023/06/19 07:34:11;;;;;;;20.95;11.48;;;;;;;27.26;56.40;100802.81;4993395;28;20050;-77
2023/06/19 07:36:39;;;;;;;16.67;10.85;;;;;;;27.15;55.27;100811.16;4993352;28;20042;-77
2023/06/19 07:39:07;;;;;;;14.07;9.55;;;;;;;27.09;56.31;100804.31;4993307;28;20054;-77
2023/06/19 07:41:36;;;;;;;11.68;9.45;;;;;;;27.10;55.65;100812.34;4993278;28;20057;-78
2023/06/19 07:44:04;;;;;;;15.75;10.82;;;;;;;27.02;56.12;100816.28;4975597;28;20050;-78
2023/06/19 07:46:32;;;;;;;13.23;9.77;;;;;;;27.18;54.82;100810.38;4993107;28;20046;-78
2023/06/19 07:49:00;;;;;;;15.45;10.60;;;;;;;27.08;55.98;100814.72;4975228;28;20520;-78
2023/06/19 07:51:28;;;;;;;16.48;10.00;;;;;;;27.39;55.71;100817.38;4992932;28;20034;-78
2023/06/19 08:12:44;;;;;;;16.90;10.88;;;;;;;27.97;53.78;100833.78;5109159;27;20371;-75
2023/06/19 08:15:15;;;;;;;16.45;10.93;;;;;;;27.83;53.48;100837.31;5109891;28;20044;-74
2023/06/19 08:17:43;;;;;;;11.43;8.55;;;;;;;28.12;52.92;100845.91;5109334;28;20046;-75
2023/06/19 08:20:12;;;;;;;14.93;10.27;;;;;;;28.14;52.33;100840.69;5108988;28;20051;-75
2023/06/19 08:22:40;;;;;;;14.27;10.35;;;;;;;28.09;52.97;100844.69;5108979;28;20394;-74
2023/06/19 08:25:08;;;;;;;15.80;9.90;;;;;;;28.03;54.14;100849.06;5109028;28;20048;-76
2023/06/19 08:27:36;;;;;;;16.88;10.75;;;;;;;28.21;53.10;100845.53;5109111;28;20048;-75
2023/06/19 08:30:04;;;;;;;14.77;10.35;;;;;;;28.16;54.18;100857.97;5108977;28;20056;-75
2023/06/19 08:32:34;;;;;;;15.20;10.90;;;;;;;28.19;54.39;100857.19;5108993;28;20044;-75
2023/06/19 08:35:03;;;;;;;13.32;9.88;;;;;;;28.23;54.33;100857.22;5109073;28;20051;-75
2023/06/19 08:37:30;;;;;;;18.45;10.95;;;;;;;28.25;53.69;100849.22;5108635;28;20047;-75
2023/06/19 08:39:59;;;;;;;15.00;10.25;;;;;;;28.34;53.59;100863.69;5108439;28;20059;-75
2023/06/19 08:42:27;;;;;;;13.85;10.43;;;;;;;28.48;52.64;100868.56;5108247;28;20059;-76
2023/06/19 08:44:55;;;;;;;17.23;10.82;;;;;;;28.48;52.35;100867.78;5108477;28;20055;-75
2023/06/19 08:47:29;;;;;;;18.55;11.02;;;;;;;28.23;52.66;100863.66;5108409;28;20044;-75
2023/06/19 08:49:58;;;;;;;13.13;9.50;;;;;;;28.38;52.88;100863.69;5108640;28;20088;-75
2023/06/19 08:52:29;;;;;;;14.05;9.40;;;;;;;28.39;53.41;100860.50;5108362;28;20048;-75
2023/06/19 08:54:57;;;;;;;13.85;9.68;;;;;;;28.40;53.36;100869.75;5108805;28;20058;-75
2023/06/19 08:57:39;;;;;;;14.23;9.38;;;;;;;28.48;53.37;100867.78;5108608;28;20062;-76
2023/06/19 09:00:10;;;;;;;12.30;9.32;;;;;;;28.60;52.72;100864.59;5108477;28;20039;-75
2023/06/19 09:02:45;;;;;;;17.50;12.45;;;;;;;28.54;52.64;100866.19;5108157;28;20052;-75
2023/06/19 09:05:27;;;;;;;18.45;11.18;;;;;;;28.48;53.22;100868.56;5108260;28;20055;-76
2023/06/19 09:08:00;;;;;;;17.15;12.30;;;;;;;28.65;53.06;100861.41;5107089;28;20040;-76
2023/06/19 09:10:31;;;;;;;14.65;10.68;;;;;;;28.67;52.30;100860.97;5106609;28;20040;-75
2023/06/19 09:13:03;;;;;;;11.25;9.35;;;;;;;28.85;52.25;100846.94;5098495;28;20044;-76
2023/06/19 09:15:34;;;;;;;18.98;11.68;;;;;;;28.95;51.90;100853.81;5094692;28;20051;-75
2023/06/19 09:18:07;;;;;;;14.70;9.70;;;;;;;29.21;51.09;100857.44;5093408;28;20044;-75
2023/06/19 09:20:44;;;;;;;15.13;12.00;;;;;;;29.22;50.57;100859.03;5094313;28;20071;-76
2023/06/19 09:23:12;;;;;;;15.07;10.65;;;;;;;29.32;51.30;100861.06;5094420;28;20505;-75
2023/06/19 09:25:48;;;;;;;20.58;14.32;;;;;;;29.16;51.67;100855.84;5094248;28;20048;-75
2023/06/19 09:28:17;;;;;;;17.85;10.55;;;;;;;29.31;50.70;100856.63;5093101;28;20486;-75
2023/06/19 09:30:56;;;;;;;17.83;10.32;;;;;;;29.57;49.35;100867.91;5094529;28;20059;-75
2023/06/19 09:33:27;;;;;;;17.88;11.95;;;;;;;29.38;49.08;100855.81;5094247;28;20060;-75
2023/06/19 09:35:56;;;;;;;17.17;11.30;;;;;;;29.49;49.14;100850.19;5094226;28;20048;-75
2023/06/19 09:38:28;;;;;;;16.58;10.15;;;;;;;29.55;47.79;100862.66;5094543;28;20044;-75
2023/06/19 09:40:59;;;;;;;14.52;10.88;;;;;;;29.54;47.44;100863.06;5094015;28;20048;-75
2023/06/19 09:43:37;;;;;;;13.85;9.32;;;;;;;29.83;47.48;100863.00;5094000;28;20040;-76
2023/06/19 09:46:06;;;;;;;12.10;9.27;;;;;;;29.92;47.41;100860.56;5093772;28;20052;-76
2023/06/19 09:48:34;;;;;;;13.82;10.10;;;;;;;30.07;47.70;100860.50;5094037;28;20044;-76
2023/06/19 09:51:19;;;;;;;13.77;9.98;;;;;;;30.14;47.03;100860.50;5093916;28;20048;-76
2023/06/19 09:53:52;;;;;;;14.63;9.60;;;;;;;30.29;46.91;100864.06;5092709;28;20405;-76
2023/06/19 09:56:24;;;;;;;16.50;11.65;;;;;;;30.26;46.70;100857.22;5093773;28;20052;-76
2023/06/19 09:58:56;;;;;;;15.38;11.82;;;;;;;30.08;47.84;100846.00;5094371;28;20036;-76
2023/06/19 10:01:26;;;;;;;16.92;10.60;;;;;;;30.28;46.19;100849.19;5093790;28;20060;-77
2023/06/19 10:04:05;;;;;;;11.45;9.20;;;;;;;30.52;45.96;100862.75;5093961;28;20047;-76
2023/06/19 10:06:33;;;;;;;13.85;10.35;;;;;;;30.48;45.61;100862.78;5093672;28;20052;-76
2023/06/19 10:09:08;;;;;;;16.13;11.10;;;;;;;30.43;45.59;100854.72;5093465;28;20047;-76
2023/06/19 10:11:53;;;;;;;14.07;9.43;;;;;;;30.41;45.11;100857.97;5091774;28;20054;-76
2023/06/19 10:14:22;;;;;;;14.68;8.82;;;;;;;30.59;45.53;100857.06;5093551;28;20067;-76
2023/06/19 10:16:50;;;;;;;10.68;8.95;;;;;;;30.64;43.30;100858.66;5093349;28;20048;-76
2023/06/19 10:19:22;;;;;;;8.35;6.80;;;;;;;30.77;41.75;100861.81;5093299;28;20048;-76
2023/06/19 10:21:52;;;;;;;9.07;7.82;;;;;;;31.00;41.96;100857.63;5093052;28;20040;-75
2023/06/19 10:24:20;;;;;;;7.60;6.30;;;;;;;31.06;42.45;100853.94;5058555;28;20063;-76
2023/06/19 10:26:59;;;;;;;11.52;7.38;;;;;;;31.23;41.91;100851.38;5059624;28;20423;-76
2023/06/19 10:29:39;;;;;;;7.93;6.97;;;;;;;31.19;41.18;100840.13;5076177;28;20051;-77
2023/06/19 10:32:09;;;;;;;9.27;7.05;;;;;;;31.39;41.58;100842.38;5074920;28;20047;-77
2023/06/19 10:34:37;;;;;;;9.23;7.18;;;;;;;31.65;40.31;100834.44;5059231;28;20494;-76
2023/06/19 10:37:07;;;;;;;12.07;7.07;;;;;;;31.38;40.12;100838.75;5059239;28;20047;-77
2023/06/19 10:39:36;;;;;;;10.95;7.95;;;;;;;31.22;40.29;100832.78;5075573;28;20046;-77
2023/06/19 10:42:07;;;;;;;9.80;6.97;;;;;;;31.15;40.14;100841.34;5058845;28;20521;-77
2023/06/19 10:44:37;;;;;;;11.25;6.93;;;;;;;31.26;40.15;100844.88;5059327;28;20063;-77
2023/06/19 10:47:07;;;;;;;6.65;6.03;;;;;;;31.38;40.00;100841.56;5054926;28;20399;-77
2023/06/19 10:49:35;;;;;;;6.20;5.60;;;;;;;31.62;37.69;100841.72;5071736;28;20052;-77
2023/06/19 10:52:30;;;;;;;6.35;5.63;;;;;;;31.76;38.30;100840.78;5068406;28;20051;-77
2023/06/19 10:54:58;;;;;;;5.82;5.03;;;;;;;31.85;37.32;100839.47;5055275;28;20494;-77
2023/06/19 10:57:27;;;;;;;8.60;6.28;;;;;;;31.88;37.92;100833.00;5038800;28;20127;-77
2023/06/19 10:59:56;;;;;;;6.47;5.72;;;;;;;31.67;37.47;100834.81;5088299;28;20055;-77
2023/06/19 11:02:25;;;;;;;8.90;5.97;;;;;;;32.09;37.71;100836.75;5054856;28;20071;-77
2023/06/19 11:04:54;;;;;;;6.95;6.30;;;;;;;32.39;37.75;100824.63;5038690;28;20055;-77
2023/06/19 11:07:22;;;;;;;9.60;5.95;;;;;;;32.33;37.32;100820.69;5071384;28;20403;-78
2023/06/19 11:09:50;;;;;;;6.20;5.57;;;;;;;32.22;38.00;100815.19;5038411;28;20052;-75
2023/06/19 11:12:21;;;;;;;9.98;5.90;;;;;;;32.32;38.43;100813.41;5038169;28;20506;-75
2023/06/19 11:14:50;;;;;;;14.68;6.75;;;;;;;32.48;36.75;100820.50;5038128;28;20063;-77
2023/06/19 11:17:21;;;;;;;6.25;5.65;;;;;;;32.36;38.07;100814.19;5038357;28;20052;-78
2023/06/19 11:19:50;;;;;;;8.07;6.07;;;;;;;32.56;37.46;100814.28;5038237;28;20052;-77
2023/06/19 11:22:18;;;;;;;6.68;5.82;;;;;;;32.55;37.82;100812.69;5037873;28;20059;-77
2023/06/19 11:24:46;;;;;;;9.18;6.35;;;;;;;32.58;38.47;100811.03;5038230;28;20052;-77
2023/06/19 11:27:27;;;;;;;10.15;6.57;;;;;;;32.49;38.27;100807.97;5071206;28;20386;-77
2023/06/19 11:29:58;;;;;;;10.63;7.15;;;;;;;32.12;38.09;100811.28;5038306;28;20399;-77
2023/06/19 11:32:40;;;;;;;9.32;6.72;;;;;;;32.41;38.76;100804.44;5054568;28;20053;-77
2023/06/19 11:35:12;;;;;;;11.35;6.97;;;;;;;32.43;38.83;100814.09;5070771;28;20394;-77
2023/06/19 11:37:41;;;;;;;8.32;7.32;;;;;;;32.50;39.00;100795.41;5038043;28;20048;-77
2023/06/19 11:40:14;;;;;;;8.23;6.90;;;;;;;32.47;36.53;100802.72;5038012;28;20059;-77
2023/06/19 11:42:53;;;;;;;10.05;7.47;;;;;;;32.72;37.11;100795.84;5038026;28;20403;-78
2023/06/19 11:45:21;;;;;;;7.18;6.15;;;;;;;32.85;36.86;100798.88;5070910;28;20052;-77
2023/06/19 11:47:50;;;;;;;8.25;6.13;;;;;;;32.93;37.22;100796.75;5037991;28;20053;-75
2023/06/19 11:50:19;;;;;;;13.45;6.57;;;;;;;33.18;36.83;100787.78;5037803;28;20048;-75
2023/06/19 11:52:47;;;;;;;9.85;7.60;;;;;;;32.63;37.30;100787.91;5037910;28;20048;-75
2023/06/19 11:55:15;;;;;;;10.80;7.05;;;;;;;32.84;37.32;100785.97;5037934;28;20049;-75
2023/06/19 11:57:44;;;;;;;9.13;7.95;;;;;;;33.05;36.48;100795.34;5037784;28;20044;-75
2023/06/19 12:00:16;;;;;;;7.63;6.80;;;;;;;33.20;35.06;100781.69;5054132;28;20045;-76
2023/06/19 12:02:47;;;;;;;9.88;6.95;;;;;;;33.03;35.88;100781.59;5070968;28;20045;-75
2023/06/19 12:05:15;;;;;;;8.68;6.90;;;;;;;33.35;35.66;100780.22;5070694;28;20044;-77
2023/06/19 12:07:43;;;;;;;12.88;8.63;;;;;;;32.77;36.28;100769.06;5037932;28;20053;-76
2023/06/19 12:10:12;;;;;;;10.65;8.02;;;;;;;33.01;36.72;100758.56;5037599;28;20057;-76
2023/06/19 12:12:39;;;;;;;8.65;7.15;;;;;;;33.37;35.13;100754.22;5037279;28;20061;-76